Time;durP1;ratioP1;P1;durP2;ratioP2;P2;SDS_P1;SDS_P2;PMS_P1;PMS_P2;Temp;Humidity;BMP_temperature;BMP_pressure;BME280_temperature;BME280_humidity;BME280_pressure;Samples;Min_cycle;Max_cycle;Signal;HPM_P1;HPM_P2
2024/03/29 00:04:42;;;;;;;6.07;3.70;;;;;;;6.21;100.00;99348.94;10095148;28;20078;-71
2024/03/29 00:09:37;;;;;;;6.53;3.80;;;;;;;6.20;100.00;99342.72;10080620;28;20082;-71
2024/03/29 00:14:33;;;;;;;7.70;4.22;;;;;;;6.11;100.00;99342.72;10092156;28;20154;-71
2024/03/29 00:19:28;;;;;;;7.35;3.63;;;;;;;6.18;100.00;99339.53;10076051;28;20146;-73
2024/03/29 00:24:24;;;;;;;5.57;4.07;;;;;;;6.06;100.00;99332.03;10053540;28;20514;-70
2024/03/29 00:29:19;;;;;;;4.70;3.80;;;;;;;6.04;100.00;99334.28;10095096;28;20428;-72
2024/03/29 00:34:15;;;;;;;7.40;3.78;;;;;;;6.05;100.00;99335.84;10085699;28;20492;-70
2024/03/29 00:39:11;;;;;;;6.22;3.88;;;;;;;5.96;100.00;99337.78;10085503;28;20130;-71
2024/03/29 00:44:07;;;;;;;4.95;3.85;;;;;;;5.88;100.00;99342.06;10076046;28;20098;-71
2024/03/29 00:49:02;;;;;;;8.15;4.25;;;;;;;5.90;100.00;99355.31;10090967;28;20085;-71
2024/03/29 00:53:58;;;;;;;3.75;3.45;;;;;;;5.84;100.00;99351.16;10074618;28;20043;-70
2024/03/29 00:58:53;;;;;;;5.88;3.30;;;;;;;5.88;100.00;99354.84;10071954;28;20369;-70
2024/03/29 01:03:49;;;;;;;4.68;3.33;;;;;;;5.87;100.00;99350.53;10084919;28;20567;-70
2024/03/29 01:08:45;;;;;;;6.28;3.63;;;;;;;5.80;100.00;99344.78;10073094;28;20054;-71
2024/03/29 01:13:40;;;;;;;4.05;3.60;;;;;;;5.81;100.00;99347.19;10084492;28;20085;-70
2024/03/29 01:18:36;;;;;;;5.15;3.58;;;;;;;5.76;100.00;99346.56;10095129;28;20559;-70
2024/03/29 01:23:32;;;;;;;4.22;2.97;;;;;;;5.72;100.00;99337.47;10088014;28;20043;-70
2024/03/29 01:28:27;;;;;;;5.43;3.22;;;;;;;5.64;100.00;99353.41;10074710;28;20515;-72
2024/03/29 01:33:23;;;;;;;4.30;3.50;;;;;;;5.61;100.00;99345.88;10089723;28;20173;-70
2024/03/29 01:38:18;;;;;;;6.18;3.45;;;;;;;5.45;100.00;99352.88;10072672;28;20126;-70
2024/03/29 01:43:14;;;;;;;5.93;3.60;;;;;;;5.40;100.00;99355.75;10070907;28;20067;-70
2024/03/29 01:48:10;;;;;;;4.78;3.90;;;;;;;5.35;100.00;99355.91;10075158;28;20126;-72
2024/03/29 01:53:08;;;;;;;8.65;4.00;;;;;;;5.33;100.00;99358.13;10075908;28;20073;-71
2024/03/29 01:58:04;;;;;;;3.80;3.15;;;;;;;5.39;100.00;99357.69;10078131;28;20078;-71
2024/03/29 02:03:01;;;;;;;6.50;3.53;;;;;;;5.30;100.00;99353.34;10091432;28;20546;-70
2024/03/29 02:07:57;;;;;;;4.85;3.17;;;;;;;5.27;100.00;99355.59;10074955;28;20043;-70
2024/03/29 02:12:52;;;;;;;4.53;3.10;;;;;;;5.31;100.00;99360.38;10072303;28;20082;-71
2024/03/29 02:17:48;;;;;;;5.82;3.10;;;;;;;5.19;100.00;99361.75;10071500;28;20043;-71
2024/03/29 02:22:53;;;;;;;4.53;3.17;;;;;;;5.14;100.00;99355.72;10089603;28;20576;-70
2024/03/29 02:27:50;;;;;;;5.43;3.40;;;;;;;5.06;100.00;99370.84;10076051;28;20051;-71
2024/03/29 02:32:46;;;;;;;4.90;3.25;;;;;;;4.95;100.00;99369.50;10076193;28;20499;-71
2024/03/29 02:37:42;;;;;;;6.68;3.20;;;;;;;4.99;100.00;99375.88;10079422;28;20077;-70
2024/03/29 02:42:37;;;;;;;4.75;3.38;;;;;;;4.96;100.00;99381.94;10085875;28;20484;-70
2024/03/29 02:47:33;;;;;;;7.07;3.72;;;;;;;5.00;100.00;99383.69;10087720;28;20523;-70
2024/03/29 02:52:29;;;;;;;4.32;3.40;;;;;;;4.98;100.00;99385.13;10069438;28;20101;-72
2024/03/29 02:57:24;;;;;;;7.43;3.47;;;;;;;5.00;100.00;99377.50;10088513;28;20075;-71
2024/03/29 03:02:20;;;;;;;8.98;3.72;;;;;;;5.00;100.00;99374.78;10084234;28;20130;-71
2024/03/29 03:12:30;;;;;;;4.88;3.65;;;;;;;4.85;100.00;99365.97;10069857;28;20079;-70
2024/03/29 03:17:26;;;;;;;4.50;3.53;;;;;;;4.80;100.00;99368.81;10099301;28;20079;-70
2024/03/29 03:22:22;;;;;;;6.32;4.03;;;;;;;4.73;100.00;99363.03;10085020;28;20050;-70
2024/03/29 03:27:17;;;;;;;3.97;3.45;;;;;;;4.69;100.00;99351.25;10073709;28;20496;-70
2024/03/29 03:32:13;;;;;;;5.10;3.22;;;;;;;4.68;100.00;99338.81;10109273;28;20054;-70
2024/03/29 03:37:08;;;;;;;3.30;3.00;;;;;;;4.68;100.00;99344.22;10087436;28;20122;-71
2024/03/29 03:42:04;;;;;;;4.07;3.60;;;;;;;4.52;100.00;99345.75;10076785;28;20051;-70
2024/03/29 03:47:00;;;;;;;6.88;3.35;;;;;;;4.55;100.00;99353.22;10076165;28;20043;-70
2024/03/29 03:51:55;;;;;;;4.65;3.47;;;;;;;4.55;100.00;99358.63;10102220;28;20054;-70
2024/03/29 03:56:51;;;;;;;4.95;3.28;;;;;;;4.71;100.00;99370.69;10096139;28;20047;-71
2024/03/29 04:01:46;;;;;;;4.55;3.80;;;;;;;4.76;100.00;99367.84;10072579;28;20043;-70
2024/03/29 04:06:42;;;;;;;6.15;4.00;;;;;;;4.70;100.00;99363.66;10091624;28;20045;-70
2024/03/29 04:11:37;;;;;;;4.40;3.70;;;;;;;4.69;100.00;99378.31;10077361;28;20039;-71
2024/03/29 04:16:33;;;;;;;4.00;3.53;;;;;;;4.68;100.00;99371.28;10104179;28;20046;-70
2024/03/29 04:21:29;;;;;;;9.63;3.53;;;;;;;4.66;100.00;99367.31;10084518;28;20138;-71
2024/03/29 04:26:24;;;;;;;3.92;3.30;;;;;;;4.77;100.00;99368.63;10097132;28;20131;-70
2024/03/29 04:31:20;;;;;;;8.38;3.50;;;;;;;4.82;100.00;99361.16;10078932;28;20053;-70
2024/03/29 04:36:15;;;;;;;5.50;3.50;;;;;;;4.80;100.00;99358.00;10084719;28;20035;-70
2024/03/29 04:41:11;;;;;;;3.70;3.30;;;;;;;4.79;100.00;99361.78;10078909;28;20132;-70
2024/03/29 04:46:11;;;;;;;3.80;3.42;;;;;;;4.79;100.00;99356.38;10076293;28;20054;-72
2024/03/29 04:51:08;;;;;;;6.30;3.70;;;;;;;4.81;100.00;99358.78;10092145;28;20079;-70
2024/03/29 04:56:04;;;;;;;4.30;3.58;;;;;;;4.88;100.00;99374.59;10106077;28;20058;-71
2024/03/29 05:00:59;;;;;;;7.57;3.70;;;;;;;4.91;100.00;99373.94;10074440;28;20534;-70
2024/03/29 05:05:56;;;;;;;5.80;3.20;;;;;;;4.95;100.00;99394.69;10093560;28;20046;-70
2024/03/29 05:10:52;;;;;;;3.88;3.17;;;;;;;5.03;100.00;99403.94;10091797;28;20520;-70
2024/03/29 05:15:48;;;;;;;5.70;3.30;;;;;;;5.09;100.00;99391.09;10074194;28;20082;-71
2024/03/29 05:20:48;;;;;;;6.32;3.42;;;;;;;5.14;100.00;99394.44;10097163;28;20047;-70
2024/03/29 05:25:44;;;;;;;6.53;3.53;;;;;;;5.17;100.00;99399.22;10112284;28;20051;-70
2024/03/29 05:30:40;;;;;;;4.30;3.40;;;;;;;5.17;100.00;99393.78;10080771;28;20518;-70
2024/03/29 05:35:35;;;;;;;4.47;3.10;;;;;;;5.21;100.00;99419.16;10072442;28;20071;-70
2024/03/29 05:40:31;;;;;;;5.13;3.30;;;;;;;5.26;100.00;99413.59;10081488;28;20102;-72
2024/03/29 05:45:28;;;;;;;6.25;3.30;;;;;;;5.38;100.00;99436.59;10076409;28;20054;-70
2024/03/29 05:50:24;;;;;;;4.03;3.45;;;;;;;5.46;100.00;99427.69;10080874;28;20050;-72
2024/03/29 05:55:20;;;;;;;3.80;2.95;;;;;;;5.55;100.00;99431.22;10089187;28;20499;-72
2024/03/29 06:00:16;;;;;;;4.25;3.08;;;;;;;5.61;100.00;99421.81;10090938;28;20055;-72
2024/03/29 06:05:12;;;;;;;6.65;3.58;;;;;;;5.69;100.00;99439.25;10092715;28;20426;-72
2024/03/29 06:10:10;;;;;;;4.03;3.40;;;;;;;5.76;100.00;99441.50;10041355;28;20079;-71
2024/03/29 06:20:20;;;;;;;4.18;3.30;;;;;;;5.89;100.00;99440.53;10071923;28;20051;-73
2024/03/29 06:25:16;;;;;;;4.30;3.42;;;;;;;5.97;100.00;99456.06;10098608;28;20567;-72
2024/03/29 06:30:11;;;;;;;5.53;3.47;;;;;;;6.03;100.00;99457.47;10093920;28;20047;-72
2024/03/29 06:35:07;;;;;;;4.85;3.40;;;;;;;6.06;100.00;99456.88;10074525;28;20780;-72
2024/03/29 06:40:03;;;;;;;4.80;3.60;;;;;;;6.15;100.00;99456.06;10070584;28;20481;-71
2024/03/29 06:44:58;;;;;;;5.53;3.78;;;;;;;6.21;100.00;99457.50;10095660;28;20055;-71
2024/03/29 06:49:54;;;;;;;6.72;3.67;;;;;;;6.24;100.00;99446.00;10073447;28;20478;-73
2024/03/29 06:54:50;;;;;;;4.65;3.85;;;;;;;6.34;100.00;99461.97;10086836;28;20397;-71
2024/03/29 06:59:46;;;;;;;4.35;3.60;;;;;;;6.41;100.00;99450.66;10069162;28;20065;-71
2024/03/29 07:04:41;;;;;;;4.18;3.70;;;;;;;6.51;100.00;99448.38;10070125;28;20085;-71
2024/03/29 07:09:37;;;;;;;3.95;3.63;;;;;;;6.60;100.00;99453.00;10085754;28;20035;-72
2024/03/29 07:14:33;;;;;;;5.55;4.00;;;;;;;6.73;100.00;99468.34;10071797;28;20053;-72
2024/03/29 07:19:29;;;;;;;4.85;4.03;;;;;;;6.88;100.00;99465.09;10049701;29;20039;-72
2024/03/29 07:24:24;;;;;;;5.45;3.90;;;;;;;7.01;100.00;99484.22;10046943;28;20048;-71
2024/03/29 07:29:20;;;;;;;5.30;3.97;;;;;;;7.16;100.00;99481.00;10082787;28;20544;-71
2024/03/29 07:34:16;;;;;;;6.47;4.43;;;;;;;7.29;100.00;99480.00;10072880;28;20126;-71
2024/03/29 07:39:11;;;;;;;4.53;4.13;;;;;;;7.45;100.00;99482.16;10084513;28;20054;-71
2024/03/29 07:44:08;;;;;;;4.45;3.90;;;;;;;7.57;100.00;99495.88;10095712;28;20035;-72
2024/03/29 07:49:03;;;;;;;6.72;4.28;;;;;;;7.67;100.00;99494.72;10097452;28;20075;-71
2024/03/29 07:53:59;;;;;;;6.47;4.20;;;;;;;7.83;100.00;99492.22;10084469;28;20062;-72
2024/03/29 07:58:55;;;;;;;7.85;4.65;;;;;;;7.90;100.00;99500.66;10073876;28;20090;-72
2024/03/29 08:03:53;;;;;;;8.50;4.32;;;;;;;7.94;100.00;99498.88;10085499;28;20066;-71
2024/03/29 08:08:50;;;;;;;5.82;4.38;;;;;;;7.96;100.00;99512.94;10101666;28;20081;-71
2024/03/29 08:13:46;;;;;;;5.07;3.90;;;;;;;8.01;100.00;99520.94;10100771;28;20478;-71
2024/03/29 08:18:41;;;;;;;9.52;4.40;;;;;;;8.03;100.00;99524.13;10092151;28;20075;-71
2024/03/29 08:23:41;;;;;;;5.90;4.80;;;;;;;8.05;100.00;99538.19;10091747;28;20039;-71
2024/03/29 08:28:37;;;;;;;5.50;4.55;;;;;;;8.09;100.00;99533.69;10099883;28;20082;-71
2024/03/29 08:33:33;;;;;;;5.43;4.90;;;;;;;8.11;100.00;99536.09;10080891;28;20040;-72
2024/03/29 08:38:28;;;;;;;5.05;4.20;;;;;;;8.13;100.00;99522.94;10074295;28;20526;-72
2024/03/29 08:43:24;;;;;;;4.72;4.22;;;;;;;8.13;100.00;99507.41;10078690;28;20557;-71
2024/03/29 08:48:19;;;;;;;7.85;3.80;;;;;;;8.22;100.00;99513.59;10076780;28;20049;-71
2024/03/29 08:53:15;;;;;;;4.45;4.03;;;;;;;8.34;100.00;99512.06;10078077;28;20047;-72
2024/03/29 08:58:10;;;;;;;4.40;4.00;;;;;;;8.45;100.00;99505.13;10078588;28;20046;-72
2024/03/29 09:03:06;;;;;;;6.68;3.80;;;;;;;8.62;100.00;99493.28;10050021;28;20151;-71
2024/03/29 09:08:02;;;;;;;4.75;3.97;;;;;;;8.66;100.00;99487.94;10060465;28;20205;-72
2024/03/29 09:12:58;;;;;;;4.88;4.47;;;;;;;8.69;100.00;99492.75;10076366;28;20744;-71
2024/03/29 09:17:54;;;;;;;5.03;4.20;;;;;;;8.92;100.00;99491.22;10089606;28;20047;-71
2024/03/29 09:22:51;;;;;;;4.07;3.78;;;;;;;9.05;100.00;99479.22;10096819;28;20042;-72
2024/03/29 09:27:48;;;;;;;5.75;4.10;;;;;;;9.09;100.00;99481.25;10073002;28;20435;-71
2024/03/29 09:32:44;;;;;;;6.22;4.78;;;;;;;8.95;100.00;99471.44;10088559;28;20075;-72
2024/03/29 09:37:42;;;;;;;4.85;4.35;;;;;;;8.85;100.00;99478.13;10091264;28;20058;-70
2024/03/29 09:42:39;;;;;;;5.07;4.57;;;;;;;8.63;100.00;99476.59;10076452;28;20046;-70
2024/03/29 09:47:36;;;;;;;5.57;5.03;;;;;;;8.54;100.00;99472.34;10072886;28;20047;-71
2024/03/29 09:52:32;;;;;;;5.15;4.47;;;;;;;8.57;100.00;99458.84;10071821;28;20055;-71
2024/03/29 09:57:30;;;;;;;6.72;4.60;;;;;;;8.64;100.00;99483.63;10072183;28;20134;-71
2024/03/29 10:02:28;;;;;;;5.13;4.57;;;;;;;8.71;100.00;99468.69;10064573;28;20051;-70
2024/03/29 10:07:24;;;;;;;5.10;4.60;;;;;;;8.59;100.00;99453.09;10075607;28;20047;-71
2024/03/29 10:12:20;;;;;;;5.07;4.57;;;;;;;8.60;100.00;99460.09;10074915;28;20047;-69
2024/03/29 10:17:17;;;;;;;5.03;4.63;;;;;;;8.56;100.00;99449.09;10071919;28;20069;-70
2024/03/29 10:22:12;;;;;;;4.72;4.28;;;;;;;8.56;100.00;99454.56;10089982;28;20099;-69
2024/03/29 10:27:08;;;;;;;5.90;4.75;;;;;;;8.57;100.00;99458.84;10072720;28;20069;-69
2024/03/29 10:32:04;;;;;;;4.97;4.50;;;;;;;8.64;100.00;99461.03;10093620;28;20050;-69
2024/03/29 10:37:01;;;;;;;5.20;3.97;;;;;;;8.70;100.00;99453.44;10089042;28;20504;-69
2024/03/29 10:41:59;;;;;;;5.05;4.00;;;;;;;8.75;100.00;99450.50;10075213;28;20068;-71
2024/03/29 10:46:58;;;;;;;5.00;4.60;;;;;;;8.71;100.00;99434.03;10072747;28;20066;-68
2024/03/29 10:51:57;;;;;;;5.18;4.70;;;;;;;8.74;100.00;99448.91;10073266;28;20047;-72
2024/03/29 10:57:06;;;;;;;5.20;4.70;;;;;;;8.71;100.00;99449.59;10069849;28;20070;-69
2024/03/29 11:02:12;;;;;;;5.65;4.60;;;;;;;8.71;100.00;99455.84;10087028;28;20384;-71
2024/03/29 11:07:15;;;;;;;6.47;4.35;;;;;;;8.79;100.00;99437.78;10074299;28;20050;-70
2024/03/29 11:12:13;;;;;;;4.70;4.22;;;;;;;8.78;100.00;99449.84;10094277;28;20066;-69
2024/03/29 11:17:09;;;;;;;8.00;4.15;;;;;;;8.90;100.00;99462.72;10073375;28;20503;-71
2024/03/29 11:22:06;;;;;;;4.90;4.20;;;;;;;8.97;100.00;99458.28;10092449;28;20047;-69
2024/03/29 11:27:10;;;;;;;4.40;3.95;;;;;;;9.10;100.00;99450.13;10090092;28;20050;-70
2024/03/29 11:32:06;;;;;;;5.13;4.25;;;;;;;9.12;100.00;99442.41;10076305;28;20088;-71
2024/03/29 11:37:10;;;;;;;6.88;4.07;;;;;;;9.37;100.00;99454.94;10051446;28;20102;-71
2024/03/29 11:42:06;;;;;;;7.93;4.65;;;;;;;9.70;100.00;99456.75;10069399;28;20051;-70
2024/03/29 11:47:06;;;;;;;7.35;5.13;;;;;;;9.94;100.00;99458.66;10071375;28;20051;-71
2024/03/29 11:52:05;;;;;;;6.75;5.22;;;;;;;10.00;100.00;99453.75;10092084;28;20459;-70
2024/03/29 11:57:00;;;;;;;6.70;5.03;;;;;;;10.14;100.00;99431.50;10076524;28;20055;-69
2024/03/29 12:01:56;;;;;;;6.35;4.72;;;;;;;10.25;100.00;99441.59;10100665;28;20515;-69
2024/03/29 12:06:53;;;;;;;6.05;5.43;;;;;;;10.27;100.00;99446.72;10076340;28;20105;-70
2024/03/29 12:11:49;;;;;;;5.50;4.70;;;;;;;10.71;100.00;99452.28;10099020;28;20348;-69
2024/03/29 12:16:46;;;;;;;5.32;4.40;;;;;;;10.78;100.00;99444.25;10080362;28;20074;-72
2024/03/29 12:21:41;;;;;;;5.07;4.32;;;;;;;11.31;100.00;99433.09;10090965;28;20171;-71
2024/03/29 12:26:37;;;;;;;4.95;4.35;;;;;;;11.13;100.00;99438.13;10079568;28;20094;-69
2024/03/29 12:31:32;;;;;;;5.80;4.10;;;;;;;11.11;100.00;99424.78;10083784;28;20047;-70
2024/03/29 12:36:29;;;;;;;6.13;4.38;;;;;;;11.24;100.00;99443.88;10092853;28;20043;-70
2024/03/29 12:41:24;;;;;;;4.53;4.13;;;;;;;11.09;100.00;99465.41;10077378;28;20063;-69
2024/03/29 12:46:20;;;;;;;4.78;4.32;;;;;;;10.95;100.00;99454.91;10076142;28;20058;-69
2024/03/29 12:51:19;;;;;;;5.95;4.38;;;;;;;11.01;100.00;99480.03;10093934;28;20441;-70
2024/03/29 12:56:14;;;;;;;5.22;4.82;;;;;;;10.97;100.00;99470.94;10074892;28;20067;-69
2024/03/29 13:01:11;;;;;;;5.35;4.32;;;;;;;10.97;100.00;99446.31;10089727;28;20487;-69
2024/03/29 13:06:07;;;;;;;7.70;4.30;;;;;;;11.22;100.00;99479.00;10091385;28;20040;-70
2024/03/29 13:11:02;;;;;;;5.55;4.38;;;;;;;11.13;100.00;99477.22;10092432;28;20051;-71
2024/03/29 13:15:58;;;;;;;5.10;4.57;;;;;;;11.11;100.00;99490.44;10095009;28;20070;-70
2024/03/29 13:20:56;;;;;;;4.60;4.07;;;;;;;11.20;100.00;99470.34;10075580;28;20122;-69
2024/03/29 13:25:53;;;;;;;5.07;4.57;;;;;;;11.43;100.00;99476.78;10093650;28;20067;-71
2024/03/29 13:30:51;;;;;;;4.47;4.07;;;;;;;11.77;100.00;99478.00;10089870;28;20079;-69
2024/03/29 13:35:47;;;;;;;6.85;4.50;;;;;;;11.56;100.00;99461.88;10072479;28;20508;-70
2024/03/29 13:40:42;;;;;;;4.85;4.30;;;;;;;11.53;100.00;99454.38;10089810;28;20082;-69
2024/03/29 13:45:38;;;;;;;5.00;4.60;;;;;;;11.63;100.00;99476.84;10092278;28;20593;-69
2024/03/29 13:50:33;;;;;;;5.20;4.70;;;;;;;11.93;100.00;99508.13;10073425;28;20058;-69
2024/03/29 13:55:29;;;;;;;4.50;4.10;;;;;;;11.82;100.00;99518.00;10086713;28;20043;-70
2024/03/29 14:00:24;;;;;;;5.70;4.80;;;;;;;11.88;100.00;99516.63;10091077;28;20050;-70
2024/03/29 14:05:20;;;;;;;5.38;4.88;;;;;;;11.82;100.00;99517.22;10090867;28;20415;-69
2024/03/29 14:10:15;;;;;;;6.20;4.95;;;;;;;11.79;100.00;99529.69;10071488;28;20055;-68
2024/03/29 14:15:12;;;;;;;6.03;4.60;;;;;;;11.73;100.00;99514.66;10073672;28;20117;-70
2024/03/29 14:20:08;;;;;;;5.85;5.00;;;;;;;11.61;100.00;99512.03;10090194;28;20066;-70
2024/03/29 14:25:04;;;;;;;6.00;5.43;;;;;;;11.65;100.00;99512.88;10070776;28;20089;-69
2024/03/29 14:30:00;;;;;;;4.88;4.47;;;;;;;11.86;100.00;99513.41;10072708;28;20051;-71
2024/03/29 14:34:58;;;;;;;4.68;4.28;;;;;;;13.01;100.00;99504.88;10087174;28;20043;-69
2024/03/29 14:39:54;;;;;;;4.60;4.20;;;;;;;15.98;100.00;99474.84;10090040;28;20039;-69
2024/03/29 14:44:49;;;;;;;4.95;4.40;;;;;;;14.00;100.00;99488.50;10070637;28;20507;-70
2024/03/29 14:49:45;;;;;;;4.80;4.40;;;;;;;15.09;100.00;99488.66;10079282;28;20798;-68
2024/03/29 14:54:40;;;;;;;5.18;4.78;;;;;;;14.69;100.00;99473.66;10089320;28;20145;-69
2024/03/29 14:59:38;;;;;;;5.45;4.95;;;;;;;14.30;100.00;99485.75;10075605;28;20102;-69
2024/03/29 15:04:33;;;;;;;5.70;5.20;;;;;;;14.12;100.00;99478.44;10078868;28;20063;-69
2024/03/29 15:09:29;;;;;;;5.25;4.85;;;;;;;13.58;100.00;99505.13;10086120;28;20507;-72
2024/03/29 15:14:25;;;;;;;5.38;4.97;;;;;;;13.51;100.00;99494.81;10072509;28;20073;-70
2024/03/29 15:19:21;;;;;;;5.30;4.90;;;;;;;13.84;100.00;99516.13;10074857;28;20079;-71
2024/03/29 15:24:17;;;;;;;5.45;4.95;;;;;;;13.62;100.00;99541.66;10079559;28;20419;-69
2024/03/29 15:29:13;;;;;;;5.93;5.43;;;;;;;14.36;100.00;99538.44;10103739;28;20057;-72
2024/03/29 15:34:09;;;;;;;5.75;5.30;;;;;;;15.31;100.00;99509.69;10084721;28;20094;-69
2024/03/29 15:39:19;;;;;;;6.45;5.95;;;;;;;15.82;100.00;99510.94;10079232;28;20539;-69
2024/03/29 15:44:16;;;;;;;6.25;5.75;;;;;;;14.02;100.00;99535.63;10079510;28;20051;-70
2024/03/29 15:49:11;;;;;;;6.97;5.50;;;;;;;13.26;100.00;99549.25;10082802;28;20051;-70
2024/03/29 15:54:11;;;;;;;6.85;6.20;;;;;;;13.02;100.00;99572.31;10054076;28;20048;-71
2024/03/29 15:59:06;;;;;;;5.47;5.07;;;;;;;12.68;100.00;99585.72;10038123;29;20468;-71
2024/03/29 16:04:02;;;;;;;6.45;5.90;;;;;;;12.58;100.00;99581.63;10071044;28;20122;-71
2024/03/29 16:08:58;;;;;;;5.90;5.47;;;;;;;12.42;100.00;99573.44;10040238;29;20934;-71
2024/03/29 16:13:53;;;;;;;5.82;5.18;;;;;;;12.48;100.00;99573.94;10074843;28;20393;-72
2024/03/29 16:18:49;;;;;;;5.82;5.32;;;;;;;12.55;100.00;99559.59;10090340;28;20488;-71
2024/03/29 16:23:44;;;;;;;5.72;5.22;;;;;;;13.10;100.00;99543.84;10099157;28;20555;-71
2024/03/29 16:28:40;;;;;;;6.13;5.63;;;;;;;13.88;100.00;99579.38;10101707;28;20610;-71
2024/03/29 16:33:38;;;;;;;5.88;5.38;;;;;;;14.24;100.00;99577.16;10057223;28;20598;-71
2024/03/29 16:38:34;;;;;;;7.10;5.72;;;;;;;13.51;100.00;99593.66;10074457;28;20086;-69
2024/03/29 16:43:29;;;;;;;5.88;5.47;;;;;;;13.71;100.00;99601.84;10075683;28;20392;-72
2024/03/29 16:48:27;;;;;;;5.80;5.25;;;;;;;13.17;100.00;99579.66;10084425;28;20053;-71
2024/03/29 16:53:22;;;;;;;6.07;5.45;;;;;;;13.64;100.00;99586.81;10052566;28;20079;-71
2024/03/29 16:58:18;;;;;;;6.35;5.75;;;;;;;13.70;100.00;99603.00;10061926;28;20043;-71
2024/03/29 17:03:13;;;;;;;5.97;5.53;;;;;;;13.92;100.00;99585.69;10077245;28;20035;-71
2024/03/29 17:08:09;;;;;;;6.72;5.55;;;;;;;14.08;100.00;99594.59;10090169;28;20043;-70
2024/03/29 17:13:04;;;;;;;5.97;5.40;;;;;;;13.34;100.00;99596.84;10075769;28;20046;-71
2024/03/29 17:18:00;;;;;;;6.00;5.53;;;;;;;12.89;100.00;99606.53;10050267;28;20051;-70
2024/03/29 17:22:55;;;;;;;6.00;5.50;;;;;;;12.77;100.00;99616.50;10058444;28;20047;-72
2024/03/29 17:27:51;;;;;;;6.18;5.63;;;;;;;12.64;100.00;99612.28;10050114;28;20160;-70
2024/03/29 17:32:46;;;;;;;6.38;5.78;;;;;;;12.43;100.00;99623.56;10033102;28;20051;-70
2024/03/29 17:37:42;;;;;;;6.60;6.00;;;;;;;12.31;100.00;99627.22;10050418;28;20519;-70
2024/03/29 17:42:38;;;;;;;6.25;5.75;;;;;;;12.15;100.00;99646.41;10034851;29;20638;-70
2024/03/29 17:47:34;;;;;;;6.85;6.25;;;;;;;12.02;100.00;99663.28;10052396;28;20040;-70
2024/03/29 17:52:29;;;;;;;5.95;5.45;;;;;;;11.94;100.00;99678.75;10048401;28;20423;-70
2024/03/29 17:57:25;;;;;;;6.40;5.85;;;;;;;11.86;100.00;99683.22;10033353;28;20592;-70
2024/03/29 18:02:20;;;;;;;6.55;6.00;;;;;;;11.80;100.00;99701.06;10032733;28;20043;-70
2024/03/29 18:07:16;;;;;;;7.18;6.20;;;;;;;11.67;100.00;99702.25;10035885;28;20534;-70
2024/03/29 18:12:11;;;;;;;7.03;6.43;;;;;;;11.59;100.00;99713.00;10036793;29;20123;-70
2024/03/29 18:17:07;;;;;;;6.65;6.03;;;;;;;11.58;100.00;99727.84;10055299;28;20043;-71
2024/03/29 18:22:03;;;;;;;7.25;6.53;;;;;;;11.54;100.00;99732.44;10096969;28;20134;-70
2024/03/29 18:26:58;;;;;;;7.82;7.13;;;;;;;11.45;100.00;99745.47;10095241;28;20039;-71
2024/03/29 18:31:54;;;;;;;7.22;6.63;;;;;;;11.27;100.00;99747.69;10090805;28;20118;-71
2024/03/29 18:36:49;;;;;;;8.98;8.18;;;;;;;11.09;100.00;99733.50;10086129;28;20053;-71
2024/03/29 18:41:45;;;;;;;9.13;8.27;;;;;;;10.91;100.00;99726.69;10086751;28;20050;-71
2024/03/29 18:46:40;;;;;;;8.88;8.07;;;;;;;10.71;100.00;99723.72;10086486;28;20039;-70
2024/03/29 18:51:36;;;;;;;9.50;8.60;;;;;;;10.57;100.00;99739.66;10070803;28;20062;-71
2024/03/29 18:56:32;;;;;;;10.60;9.57;;;;;;;10.38;100.00;99751.16;10069163;28;20065;-71
2024/03/29 19:01:29;;;;;;;15.10;10.65;;;;;;;10.21;100.00;99765.81;10085853;28;20043;-71
2024/03/29 19:06:26;;;;;;;11.60;9.32;;;;;;;10.12;100.00;99773.28;10088836;28;20054;-70
2024/03/29 19:11:24;;;;;;;13.48;10.02;;;;;;;10.07;100.00;99776.22;10072988;28;20609;-71
2024/03/29 19:16:20;;;;;;;10.77;8.85;;;;;;;10.02;100.00;99795.56;10084719;28;20079;-71
2024/03/29 19:21:16;;;;;;;11.50;9.27;;;;;;;9.97;100.00;99798.50;10072046;28;20427;-71
2024/03/29 19:26:11;;;;;;;11.48;8.15;;;;;;;9.90;100.00;99805.28;10068335;28;20480;-71
2024/03/29 19:31:08;;;;;;;10.93;8.07;;;;;;;9.95;100.00;99795.31;10054555;28;20048;-70
2024/03/29 19:36:04;;;;;;;9.35;8.40;;;;;;;9.93;100.00;99800.28;10062764;28;20487;-70
2024/03/29 19:41:00;;;;;;;9.85;7.93;;;;;;;9.77;100.00;99803.66;10088240;28;20070;-71
2024/03/29 19:46:00;;;;;;;8.55;7.60;;;;;;;9.69;100.00;99804.53;10069265;28;20123;-72
2024/03/29 19:50:55;;;;;;;8.82;7.47;;;;;;;9.73;100.00;99808.19;10072807;28;20047;-70
2024/03/29 19:55:52;;;;;;;7.45;6.75;;;;;;;9.69;100.00;99804.53;10069086;28;20043;-71
2024/03/29 20:00:48;;;;;;;7.75;6.88;;;;;;;9.63;100.00;99800.38;10078084;28;20069;-72
2024/03/29 20:05:43;;;;;;;7.60;6.60;;;;;;;9.62;100.00;99799.59;10087027;28;20047;-71
2024/03/29 20:10:40;;;;;;;10.00;6.70;;;;;;;9.76;100.00;99812.97;10103778;28;20047;-70
2024/03/29 20:15:39;;;;;;;7.10;6.35;;;;;;;9.84;100.00;99806.66;10075800;28;20066;-71
2024/03/29 20:20:35;;;;;;;6.75;6.05;;;;;;;9.90;100.00;99816.22;10075323;28;20547;-71
2024/03/29 20:25:31;;;;;;;8.27;6.45;;;;;;;9.93;100.00;99813.94;10078912;28;20078;-70
2024/03/29 20:30:27;;;;;;;8.02;6.60;;;;;;;9.90;100.00;99810.75;10092036;28;20070;-71
2024/03/29 20:35:22;;;;;;;7.18;6.38;;;;;;;9.96;100.00;99807.84;10109737;28;20047;-72
2024/03/29 20:40:18;;;;;;;8.07;6.53;;;;;;;9.90;100.00;99831.81;10093172;28;20043;-71
2024/03/29 20:45:13;;;;;;;9.27;6.38;;;;;;;9.91;100.00;99849.81;10106357;28;20117;-71
2024/03/29 20:50:09;;;;;;;10.32;6.40;;;;;;;9.86;100.00;99853.53;10100877;28;20047;-71
2024/03/29 20:55:06;;;;;;;9.23;6.15;;;;;;;9.90;100.00;99870.81;10089579;28;20070;-71
2024/03/29 21:00:08;;;;;;;7.43;5.65;;;;;;;9.93;100.00;99863.09;10091676;28;20051;-70
2024/03/29 21:10:18;;;;;;;9.38;5.90;;;;;;;9.97;100.00;99847.66;10105246;28;20051;-71
2024/03/29 21:15:16;;;;;;;6.97;5.70;;;;;;;9.96;100.00;99840.59;10072811;28;20063;-72
2024/03/29 21:20:12;;;;;;;7.13;5.97;;;;;;;9.86;100.00;99830.88;10089679;28;20526;-70
2024/03/29 21:25:09;;;;;;;6.25;5.65;;;;;;;9.90;100.00;99854.44;10096474;28;20051;-71
2024/03/29 21:30:11;;;;;;;7.70;5.72;;;;;;;9.81;100.00;99850.97;10078619;28;20047;-71
2024/03/29 21:35:07;;;;;;;;;;;;;;;9.78;100.00;99859.84;10089146;28;20156;-71
2024/03/29 21:40:04;;;;;;;5.93;5.32;;;;;;;9.81;100.00;99878.28;10074034;28;19932;-71
2024/03/29 21:45:00;;;;;;;6.55;5.65;;;;;;;9.82;100.00;99873.66;10073266;28;20051;-71
2024/03/29 21:49:55;;;;;;;7.13;5.60;;;;;;;9.78;100.00;99884.41;10090057;28;20039;-70
2024/03/29 21:54:51;;;;;;;8.65;5.70;;;;;;;9.80;100.00;99884.88;10088344;28;20062;-71
2024/03/29 21:59:46;;;;;;;6.47;5.57;;;;;;;9.83;100.00;99876.03;10095051;28;20109;-71
2024/03/29 22:04:42;;;;;;;6.50;5.18;;;;;;;9.79;100.00;99869.63;10070003;28;20043;-71
2024/03/29 22:09:38;;;;;;;7.75;5.00;;;;;;;9.67;100.00;99873.09;10083572;28;20192;-72
2024/03/29 22:14:34;;;;;;;6.20;5.00;;;;;;;9.67;100.00;99878.53;10074180;28;20043;-71
2024/03/29 22:19:29;;;;;;;6.25;5.50;;;;;;;9.72;100.00;99899.38;10073143;28;20129;-71
2024/03/29 22:24:25;;;;;;;6.45;4.80;;;;;;;9.72;100.00;99913.03;10054731;28;20134;-71
2024/03/29 22:29:21;;;;;;;6.50;5.15;;;;;;;9.71;100.00;99916.91;10066601;28;20102;-71
2024/03/29 22:34:16;;;;;;;6.47;4.72;;;;;;;9.64;100.00;99920.16;10072048;28;20489;-71
2024/03/29 22:39:12;;;;;;;6.68;5.82;;;;;;;9.70;100.00;99915.31;10086345;28;20591;-70
2024/03/29 22:44:07;;;;;;;6.85;5.55;;;;;;;9.70;100.00;99907.13;10069451;28;20035;-70
2024/03/29 22:49:03;;;;;;;8.70;6.40;;;;;;;9.66;100.00;99904.25;10076466;28;20043;-71
2024/03/29 22:53:58;;;;;;;8.70;5.38;;;;;;;9.62;100.00;99908.75;10069015;28;20133;-69
2024/03/29 22:58:54;;;;;;;5.72;5.20;;;;;;;9.68;100.00;99915.66;10067851;28;20047;-69
2024/03/29 23:03:49;;;;;;;6.07;5.30;;;;;;;9.65;100.00;99929.13;10084899;28;20048;-69
2024/03/29 23:08:45;;;;;;;6.18;5.35;;;;;;;9.61;100.00;99939.13;10072955;28;20086;-72